Time;durP1;ratioP1;P1;durP2;ratioP2;P2;SDS_P1;SDS_P2;PMS_P1;PMS_P2;Temp;Humidity;BMP_temperature;BMP_pressure;BME280_temperature;BME280_humidity;BME280_pressure;Samples;Min_cycle;Max_cycle;Signal;HPM_P1;HPM_P2
2023/09/27 00:00:12;;;;;;;20.13;15.77;;;15.00;99.90;;;;;;5049679;28;20519;-77
2023/09/27 00:02:39;;;;;;;18.70;15.55;;;15.00;99.90;;;;;;5050253;28;20139;-77
2023/09/27 00:05:06;;;;;;;19.95;16.00;;;15.00;99.90;;;;;;5048944;28;20117;-77
2023/09/27 00:07:36;;;;;;;18.45;15.38;;;15.00;99.90;;;;;;5041815;28;20128;-77
2023/09/27 00:10:09;;;;;;;20.13;15.68;;;14.90;99.90;;;;;;5033645;28;20093;-77
2023/09/27 00:12:35;;;;;;;17.65;15.70;;;14.90;99.90;;;;;;5049902;28;20086;-77
2023/09/27 00:15:01;;;;;;;17.48;14.82;;;14.90;99.90;;;;;;5049752;28;20029;-77
2023/09/27 00:17:28;;;;;;;21.02;16.60;;;14.90;99.90;;;;;;5047571;28;20094;-77
2023/09/27 00:19:54;;;;;;;18.65;15.77;;;14.90;99.90;;;;;;5048127;28;20062;-77
2023/09/27 00:22:19;;;;;;;20.52;15.88;;;14.90;99.90;;;;;;5048496;28;20120;-77
2023/09/27 00:24:45;;;;;;;21.08;15.85;;;14.80;99.90;;;;;;5033834;28;20139;-77
2023/09/27 00:27:11;;;;;;;19.38;15.65;;;14.80;99.90;;;;;;5047582;28;20078;-77
2023/09/27 00:29:36;;;;;;;19.10;15.05;;;14.80;99.90;;;;;;5048950;28;20471;-77
2023/09/27 00:32:02;;;;;;;18.73;15.73;;;14.90;99.90;;;;;;5047469;28;20048;-77
2023/09/27 00:34:28;;;;;;;19.70;15.57;;;14.90;99.90;;;;;;5049855;28;20029;-77
2023/09/27 00:36:53;;;;;;;19.58;15.85;;;14.80;99.90;;;;;;5049239;28;20465;-77
2023/09/27 00:39:19;;;;;;;19.17;15.57;;;14.80;99.90;;;;;;5049512;28;20033;-77
2023/09/27 00:41:44;;;;;;;16.52;14.70;;;14.80;99.90;;;;;;5047797;28;20120;-77
2023/09/27 00:44:10;;;;;;;16.90;14.38;;;14.80;99.90;;;;;;5047931;28;20064;-77
2023/09/27 00:46:36;;;;;;;19.30;15.18;;;14.70;99.90;;;;;;5032434;28;20068;-77
2023/09/27 00:49:02;;;;;;;19.40;14.88;;;14.70;99.90;;;;;;5048352;28;20433;-77
2023/09/27 00:51:29;;;;;;;17.42;14.82;;;14.70;99.90;;;;;;5049770;28;20049;-77
2023/09/27 00:53:56;;;;;;;16.88;14.80;;;14.70;99.90;;;;;;5048858;28;20037;-76
2023/09/27 00:56:23;;;;;;;17.50;15.00;;;14.70;99.90;;;;;;5048437;28;20033;-76
2023/09/27 00:58:48;;;;;;;17.60;15.20;;;14.70;99.90;;;;;;5047849;28;20407;-76
2023/09/27 01:01:15;;;;;;;17.58;15.10;;;14.70;99.90;;;;;;5047999;28;20115;-76
2023/09/27 01:03:40;;;;;;;19.70;15.07;;;14.70;99.90;;;;;;5047419;28;20444;-77
2023/09/27 01:06:07;;;;;;;17.13;14.63;;;14.70;99.90;;;;;;5048768;28;20053;-77
2023/09/27 01:08:32;;;;;;;17.25;15.40;;;14.70;99.90;;;;;;5040504;28;20091;-77
2023/09/27 01:10:59;;;;;;;17.25;14.80;;;14.60;99.90;;;;;;5048142;28;20064;-77
2023/09/27 01:13:24;;;;;;;18.30;14.55;;;14.60;99.90;;;;;;5046121;28;20048;-77
2023/09/27 01:15:50;;;;;;;17.02;13.68;;;14.60;99.90;;;;;;5031386;28;20033;-77
2023/09/27 01:18:15;;;;;;;17.35;14.80;;;14.60;99.90;;;;;;5048101;28;20037;-77
2023/09/27 01:20:41;;;;;;;17.45;14.75;;;14.60;99.90;;;;;;5052263;28;20408;-77
2023/09/27 01:23:07;;;;;;;19.45;15.45;;;14.60;99.90;;;;;;5053571;28;20044;-77
2023/09/27 01:25:33;;;;;;;17.63;15.18;;;14.60;99.90;;;;;;5052659;28;20053;-77
2023/09/27 01:28:00;;;;;;;16.45;14.68;;;14.60;99.90;;;;;;5052643;28;20041;-77
2023/09/27 01:30:32;;;;;;;18.08;14.55;;;14.60;99.90;;;;;;5051261;28;20044;-77
2023/09/27 01:33:05;;;;;;;16.75;14.65;;;14.60;99.90;;;;;;5053427;28;20404;-76
2023/09/27 01:35:31;;;;;;;17.20;15.20;;;14.50;99.90;;;;;;5052558;28;20080;-77
2023/09/27 01:37:57;;;;;;;17.58;15.68;;;14.50;99.90;;;;;;5052211;28;20037;-76
2023/09/27 01:40:26;;;;;;;18.38;15.75;;;14.50;99.90;;;;;;5052239;28;20127;-77
2023/09/27 01:42:52;;;;;;;17.83;14.90;;;14.50;99.90;;;;;;5052269;28;20049;-77
2023/09/27 01:45:18;;;;;;;18.52;14.05;;;14.50;99.90;;;;;;5052506;28;20091;-76
2023/09/27 01:47:44;;;;;;;15.77;14.13;;;14.50;99.90;;;;;;5051836;28;20044;-76
2023/09/27 01:50:10;;;;;;;18.05;14.88;;;14.50;99.90;;;;;;5052110;28;20079;-76
2023/09/27 01:52:35;;;;;;;17.33;13.93;;;14.40;99.90;;;;;;5052674;28;20112;-77
2023/09/27 01:55:01;;;;;;;17.75;15.43;;;14.40;99.90;;;;;;5052221;28;20029;-77
2023/09/27 01:57:27;;;;;;;18.95;14.88;;;14.40;99.90;;;;;;5051915;28;20036;-77
2023/09/27 01:59:52;;;;;;;18.38;15.13;;;14.40;99.90;;;;;;5050785;28;20052;-76
2023/09/27 02:02:18;;;;;;;17.40;15.23;;;14.30;99.90;;;;;;5052960;28;20129;-76
2023/09/27 02:04:43;;;;;;;18.80;15.50;;;14.30;99.90;;;;;;5052107;28;20385;-76
2023/09/27 02:07:09;;;;;;;18.88;14.82;;;14.30;99.90;;;;;;5051804;28;20040;-77
2023/09/27 02:09:34;;;;;;;18.38;14.80;;;14.30;99.90;;;;;;5051368;28;20044;-77
2023/09/27 02:12:00;;;;;;;16.55;14.75;;;14.30;99.90;;;;;;5051670;28;20116;-77
2023/09/27 02:14:26;;;;;;;19.40;15.93;;;14.20;99.90;;;;;;5052834;28;20570;-77
2023/09/27 02:16:51;;;;;;;19.05;15.88;;;14.20;99.90;;;;;;5053331;28;20036;-77
2023/09/27 02:19:17;;;;;;;15.40;13.80;;;14.20;99.90;;;;;;5051643;28;20047;-76
2023/09/27 02:21:42;;;;;;;19.80;15.55;;;14.20;99.90;;;;;;5051315;28;20049;-77
2023/09/27 02:24:09;;;;;;;18.77;15.25;;;14.20;99.90;;;;;;5051627;28;20071;-76
2023/09/27 02:26:34;;;;;;;17.98;14.65;;;14.20;99.90;;;;;;5047631;28;20037;-77
2023/09/27 02:29:00;;;;;;;18.23;13.95;;;14.10;99.90;;;;;;5050567;28;20381;-77
2023/09/27 02:31:25;;;;;;;20.00;16.10;;;14.10;99.90;;;;;;5049293;28;20036;-76
2023/09/27 02:33:51;;;;;;;19.17;14.75;;;14.10;99.90;;;;;;5051402;28;20045;-77
2023/09/27 02:36:17;;;;;;;20.13;16.92;;;14.10;99.90;;;;;;5051613;28;20033;-76
2023/09/27 02:38:43;;;;;;;19.77;15.38;;;14.00;99.90;;;;;;5051301;28;20116;-76
2023/09/27 02:41:08;;;;;;;17.88;15.40;;;14.00;99.90;;;;;;5050378;28;20048;-76
2023/09/27 02:43:34;;;;;;;19.20;14.55;;;14.00;99.90;;;;;;5043895;28;20091;-76
2023/09/27 02:46:00;;;;;;;20.10;16.63;;;14.00;99.90;;;;;;5052236;28;20040;-76
2023/09/27 02:48:25;;;;;;;18.88;16.23;;;14.00;99.90;;;;;;5049741;28;20581;-76
2023/09/27 02:50:55;;;;;;;19.20;16.70;;;14.00;99.90;;;;;;5052436;28;20083;-76
2023/09/27 02:53:21;;;;;;;18.90;16.20;;;13.90;99.90;;;;;;5050725;28;20037;-76
2023/09/27 02:55:46;;;;;;;20.15;16.15;;;13.90;99.90;;;;;;5049596;28;20123;-76
2023/09/27 02:58:12;;;;;;;20.73;16.63;;;13.90;99.90;;;;;;5050524;28;20108;-76
2023/09/27 03:00:38;;;;;;;19.23;16.25;;;13.80;99.90;;;;;;5051755;28;20467;-76
2023/09/27 03:03:03;;;;;;;19.17;15.88;;;13.80;99.90;;;;;;5050362;28;20103;-76
2023/09/27 03:05:35;;;;;;;20.73;16.77;;;13.80;99.90;;;;;;5050699;28;20411;-76
2023/09/27 03:08:00;;;;;;;21.42;17.60;;;13.80;99.90;;;;;;5051492;28;20083;-76
2023/09/27 03:10:26;;;;;;;18.55;16.63;;;13.80;99.90;;;;;;5049892;28;20064;-76
2023/09/27 03:12:51;;;;;;;19.60;16.48;;;13.80;99.90;;;;;;5049570;28;20123;-76
2023/09/27 03:15:17;;;;;;;20.10;15.95;;;13.80;99.90;;;;;;5051647;28;20037;-76
2023/09/27 03:17:44;;;;;;;19.23;17.13;;;13.70;99.90;;;;;;5050506;28;20538;-76
2023/09/27 03:20:15;;;;;;;20.35;16.63;;;13.70;99.90;;;;;;5049591;28;20445;-76
2023/09/27 03:22:47;;;;;;;19.98;15.82;;;13.70;99.90;;;;;;5043376;28;20162;-76
2023/09/27 03:25:13;;;;;;;19.58;17.15;;;13.70;99.90;;;;;;5047094;28;20532;-76
2023/09/27 03:27:39;;;;;;;21.15;17.38;;;13.70;99.90;;;;;;5048817;28;20075;-76
2023/09/27 03:30:05;;;;;;;18.50;16.50;;;13.70;99.90;;;;;;5049358;28;20033;-77
2023/09/27 03:32:32;;;;;;;24.63;18.67;;;13.70;99.90;;;;;;5050481;28;20033;-76
2023/09/27 03:34:58;;;;;;;20.85;16.80;;;13.70;99.90;;;;;;5050178;28;20106;-76
2023/09/27 03:37:23;;;;;;;20.92;16.38;;;13.70;99.90;;;;;;5049783;28;20167;-76
2023/09/27 03:39:52;;;;;;;19.70;16.92;;;13.70;99.90;;;;;;5049129;28;20068;-77
2023/09/27 03:42:18;;;;;;;24.77;19.02;;;13.60;99.90;;;;;;5050007;28;20049;-76
2023/09/27 03:44:44;;;;;;;20.38;17.90;;;13.60;99.90;;;;;;5050251;28;20048;-77
2023/09/27 03:47:10;;;;;;;20.35;16.55;;;13.60;99.90;;;;;;5050855;28;20136;-77
2023/09/27 03:49:36;;;;;;;20.40;17.88;;;13.50;99.90;;;;;;5047661;28;20067;-77
2023/09/27 03:52:02;;;;;;;21.38;18.17;;;13.50;99.90;;;;;;5049225;28;20116;-76
2023/09/27 03:54:27;;;;;;;18.83;16.80;;;13.50;99.90;;;;;;5049804;28;20036;-76
2023/09/27 03:56:54;;;;;;;20.00;17.30;;;13.50;99.90;;;;;;5050046;28;20404;-77
2023/09/27 03:59:19;;;;;;;25.92;19.77;;;13.40;99.90;;;;;;5047576;28;20037;-76
2023/09/27 04:01:46;;;;;;;21.70;18.40;;;13.40;99.90;;;;;;5047572;28;20048;-76
2023/09/27 04:04:11;;;;;;;24.83;19.55;;;13.40;99.90;;;;;;5041857;28;20448;-76
2023/09/27 04:06:37;;;;;;;23.05;20.20;;;13.40;99.90;;;;;;5047002;28;20044;-76
2023/09/27 04:09:03;;;;;;;23.48;18.90;;;13.40;99.90;;;;;;5049525;28;20465;-77
2023/09/27 04:11:29;;;;;;;22.13;17.95;;;13.40;99.90;;;;;;5049776;28;20033;-76
2023/09/27 04:13:54;;;;;;;22.05;18.63;;;13.40;99.90;;;;;;5048965;28;20041;-77
2023/09/27 04:16:20;;;;;;;22.67;19.60;;;13.40;99.90;;;;;;5049859;28;20041;-77
2023/09/27 04:18:45;;;;;;;21.63;18.75;;;13.40;99.90;;;;;;5050266;28;20033;-77
2023/09/27 04:21:11;;;;;;;20.58;18.40;;;13.40;99.90;;;;;;5050334;28;20041;-76
2023/09/27 04:23:37;;;;;;;19.27;17.25;;;13.40;99.90;;;;;;5050593;28;20112;-77
2023/09/27 04:26:06;;;;;;;19.80;17.35;;;13.30;99.90;;;;;;5051742;28;20044;-77
2023/09/27 04:28:32;;;;;;;22.10;18.27;;;13.30;99.90;;;;;;5049880;28;20087;-77
2023/09/27 04:30:58;;;;;;;22.75;19.25;;;13.30;99.90;;;;;;5050220;28;20044;-76
2023/09/27 04:33:23;;;;;;;21.65;18.13;;;13.30;99.90;;;;;;5047117;28;20029;-77
2023/09/27 04:35:49;;;;;;;20.98;17.08;;;13.30;99.90;;;;;;5032518;28;20068;-76
2023/09/27 04:38:16;;;;;;;22.50;19.17;;;13.30;99.90;;;;;;5049652;28;20036;-77
2023/09/27 04:40:41;;;;;;;21.23;18.70;;;13.20;99.90;;;;;;5033489;28;20527;-77
2023/09/27 04:43:07;;;;;;;19.90;17.63;;;13.20;99.90;;;;;;5050282;28;20037;-76
2023/09/27 04:45:33;;;;;;;23.88;19.08;;;13.20;99.90;;;;;;5051181;28;20090;-77
2023/09/27 04:48:00;;;;;;;21.63;18.77;;;13.20;99.90;;;;;;5048447;28;20045;-77
2023/09/27 04:50:28;;;;;;;21.60;17.67;;;13.20;99.90;;;;;;5049651;28;20040;-76
2023/09/27 04:52:54;;;;;;;23.35;18.55;;;13.20;99.90;;;;;;5048250;28;20164;-77
2023/09/27 04:55:19;;;;;;;24.27;19.50;;;13.20;99.90;;;;;;5049797;28;20130;-76
2023/09/27 04:57:45;;;;;;;23.92;20.83;;;13.10;99.90;;;;;;5049915;28;20044;-77
2023/09/27 05:00:18;;;;;;;21.92;19.08;;;13.10;99.90;;;;;;5048994;28;20041;-76
2023/09/27 05:02:45;;;;;;;;;;;13.20;99.90;;;;;;5041044;28;20045;-76
2023/09/27 05:05:11;;;;;;;20.38;17.92;;;13.10;99.90;;;;;;5049611;28;19921;-76
2023/09/27 05:07:36;;;;;;;23.38;19.48;;;13.10;99.90;;;;;;5049239;28;20103;-76
2023/09/27 05:10:02;;;;;;;22.02;19.25;;;13.00;99.90;;;;;;5048818;28;20496;-76
2023/09/27 05:12:28;;;;;;;20.65;18.27;;;13.10;99.90;;;;;;5045993;28;20044;-77
2023/09/27 05:14:53;;;;;;;23.40;18.23;;;13.00;99.90;;;;;;5045363;28;20086;-77
2023/09/27 05:17:19;;;;;;;21.73;19.15;;;13.00;99.90;;;;;;5040082;28;20103;-77
2023/09/27 05:19:44;;;;;;;23.17;19.00;;;13.00;99.90;;;;;;5042303;28;20142;-77
2023/09/27 05:22:11;;;;;;;23.50;20.52;;;13.00;99.90;;;;;;5038762;28;20037;-77
2023/09/27 05:24:38;;;;;;;23.17;19.35;;;13.00;99.90;;;;;;5035464;28;20051;-77
2023/09/27 05:27:06;;;;;;;23.83;19.48;;;13.00;99.90;;;;;;5037429;28;20124;-76
2023/09/27 05:29:31;;;;;;;26.38;20.88;;;13.00;99.90;;;;;;5020145;28;20128;-76
2023/09/27 05:31:57;;;;;;;23.05;18.95;;;12.90;99.90;;;;;;5040174;28;20119;-77
2023/09/27 05:34:23;;;;;;;24.63;20.10;;;12.90;99.90;;;;;;5034368;28;20091;-77
2023/09/27 05:36:49;;;;;;;25.85;19.77;;;12.90;99.90;;;;;;5044190;28;20489;-77
2023/09/27 05:39:14;;;;;;;21.85;19.23;;;12.90;99.90;;;;;;5044444;28;20039;-77
2023/09/27 05:41:40;;;;;;;22.85;20.33;;;12.90;99.90;;;;;;5033005;28;20128;-76
2023/09/27 05:44:05;;;;;;;24.45;21.65;;;12.90;99.90;;;;;;5038025;28;20466;-76
2023/09/27 05:46:33;;;;;;;23.38;20.75;;;12.90;99.90;;;;;;5036709;28;20546;-76
2023/09/27 05:49:01;;;;;;;25.27;21.02;;;12.90;99.90;;;;;;5044492;28;20033;-76
2023/09/27 05:51:30;;;;;;;22.17;19.75;;;13.00;99.90;;;;;;5048830;28;20056;-77
2023/09/27 05:53:56;;;;;;;23.52;19.52;;;13.00;99.90;;;;;;5032073;28;20037;-76
2023/09/27 05:56:22;;;;;;;25.35;20.13;;;13.00;99.90;;;;;;5048717;28;20037;-76
2023/09/27 05:58:47;;;;;;;21.45;19.15;;;13.00;99.90;;;;;;5048517;28;20052;-76
2023/09/27 06:01:19;;;;;;;22.70;20.20;;;13.10;99.90;;;;;;5048717;28;20535;-76
2023/09/27 06:03:45;;;;;;;23.15;18.73;;;13.10;99.90;;;;;;5046652;28;20045;-76
2023/09/27 06:06:12;;;;;;;24.67;20.23;;;13.10;99.90;;;;;;5053840;28;20040;-76
2023/09/27 06:08:37;;;;;;;23.77;19.65;;;13.10;99.90;;;;;;5035659;28;20055;-76
2023/09/27 06:11:03;;;;;;;23.25;19.95;;;13.10;99.90;;;;;;5052056;28;20033;-76
2023/09/27 06:13:28;;;;;;;22.10;19.50;;;13.10;99.90;;;;;;5051938;28;20037;-76
2023/09/27 06:15:54;;;;;;;23.23;20.15;;;13.10;99.90;;;;;;5050317;28;20029;-76
2023/09/27 06:18:20;;;;;;;24.73;20.65;;;13.20;99.90;;;;;;5049531;28;20041;-76
2023/09/27 06:20:47;;;;;;;26.63;22.70;;;13.20;99.90;;;;;;5045774;28;20091;-77
2023/09/27 06:23:13;;;;;;;26.38;22.23;;;13.20;99.90;;;;;;5044750;28;20131;-76
2023/09/27 06:25:43;;;;;;;25.10;21.15;;;13.20;99.90;;;;;;5050355;28;20526;-76
2023/09/27 06:28:13;;;;;;;27.52;22.27;;;13.20;99.90;;;;;;5048406;28;20041;-76
2023/09/27 06:30:40;;;;;;;29.23;22.95;;;13.30;99.90;;;;;;5038896;28;20044;-76
2023/09/27 06:33:08;;;;;;;29.10;23.63;;;13.30;99.90;;;;;;5052053;28;20043;-76
2023/09/27 06:35:35;;;;;;;24.42;21.33;;;13.30;99.90;;;;;;5051939;28;20037;-76
2023/09/27 06:38:02;;;;;;;26.17;22.60;;;13.30;99.90;;;;;;5051932;28;20041;-76
2023/09/27 06:40:29;;;;;;;32.80;23.17;;;13.30;99.90;;;;;;5051582;28;20055;-76
2023/09/27 06:42:55;;;;;;;25.45;21.33;;;13.30;99.90;;;;;;5051782;28;20170;-76
2023/09/27 06:45:22;;;;;;;30.23;23.95;;;13.40;99.90;;;;;;5051572;28;20083;-76
2023/09/27 06:47:48;;;;;;;25.70;22.88;;;13.40;99.90;;;;;;5034891;28;20405;-77
2023/09/27 06:50:15;;;;;;;28.95;22.80;;;13.50;99.90;;;;;;5051596;28;20033;-77
2023/09/27 06:52:41;;;;;;;26.95;22.75;;;13.50;99.90;;;;;;5044121;28;20044;-77
2023/09/27 06:55:10;;;;;;;27.52;23.88;;;13.60;99.90;;;;;;5051949;28;20037;-76
2023/09/27 06:57:40;;;;;;;28.00;23.33;;;13.60;99.90;;;;;;5051339;28;20033;-77
2023/09/27 07:00:10;;;;;;;30.52;24.50;;;13.70;99.90;;;;;;5051089;28;20040;-77
2023/09/27 07:02:36;;;;;;;27.98;24.98;;;13.80;99.90;;;;;;5032171;28;20532;-77
2023/09/27 07:05:02;;;;;;;29.00;25.00;;;14.00;99.90;;;;;;5049640;28;20080;-77
2023/09/27 07:07:29;;;;;;;28.45;25.40;;;14.00;99.90;;;;;;5048604;28;20404;-76
2023/09/27 07:09:55;;;;;;;30.85;25.55;;;14.10;99.90;;;;;;5048997;28;20048;-77
2023/09/27 07:12:21;;;;;;;28.70;24.75;;;14.10;99.90;;;;;;5048420;28;20037;-76
2023/09/27 07:14:46;;;;;;;28.70;24.60;;;14.30;99.90;;;;;;5034598;28;20048;-76
2023/09/27 07:17:12;;;;;;;29.02;25.08;;;14.30;99.90;;;;;;5023218;28;20033;-77
2023/09/27 07:19:38;;;;;;;29.63;25.83;;;14.50;99.90;;;;;;5049519;28;20043;-77
2023/09/27 07:22:03;;;;;;;27.17;23.77;;;14.50;99.90;;;;;;5050396;28;20108;-76
2023/09/27 07:24:33;;;;;;;30.88;25.33;;;14.70;99.90;;;;;;5048818;28;20036;-76
2023/09/27 07:26:58;;;;;;;28.80;25.27;;;14.90;99.90;;;;;;5034356;28;20080;-76
2023/09/27 07:29:24;;;;;;;30.27;25.50;;;15.10;99.90;;;;;;5051061;28;20060;-76
2023/09/27 07:31:49;;;;;;;29.08;25.92;;;15.10;99.90;;;;;;5033957;28;20033;-76
2023/09/27 07:34:15;;;;;;;27.00;24.05;;;15.20;99.90;;;;;;5050783;28;20143;-76
2023/09/27 07:36:43;;;;;;;32.55;25.77;;;15.20;99.90;;;;;;5050918;28;20040;-76
2023/09/27 07:39:09;;;;;;;31.20;24.85;;;15.20;99.90;;;;;;5050382;28;20037;-76
2023/09/27 07:41:35;;;;;;;27.45;24.30;;;15.10;99.90;;;;;;5050610;28;20062;-77
2023/09/27 07:44:01;;;;;;;30.50;26.40;;;15.20;99.90;;;;;;5050640;28;20073;-76
2023/09/27 07:46:29;;;;;;;30.45;26.70;;;15.30;99.90;;;;;;5050899;28;20537;-77
2023/09/27 07:48:55;;;;;;;28.80;24.75;;;15.50;99.90;;;;;;5050259;28;20041;-76
2023/09/27 07:51:22;;;;;;;31.00;24.92;;;15.60;99.90;;;;;;5049836;28;20186;-76
2023/09/27 07:53:48;;;;;;;27.80;24.80;;;15.70;99.90;;;;;;5049382;28;20045;-76
2023/09/27 07:56:22;;;;;;;29.15;25.10;;;15.80;99.90;;;;;;5050566;28;20036;-76
2023/09/27 07:58:51;;;;;;;30.58;26.17;;;15.90;99.90;;;;;;5033725;28;20037;-76
2023/09/27 08:01:23;;;;;;;29.95;25.90;;;16.00;99.90;;;;;;5050455;28;20048;-76
2023/09/27 08:03:51;;;;;;;29.73;25.80;;;16.20;99.90;;;;;;5043438;28;20045;-76
2023/09/27 08:06:18;;;;;;;30.40;25.98;;;16.30;99.90;;;;;;5037602;28;20041;-77
2023/09/27 08:08:44;;;;;;;30.38;24.90;;;16.40;99.90;;;;;;5035729;28;20106;-77
2023/09/27 08:11:13;;;;;;;27.58;24.42;;;16.50;99.90;;;;;;5048485;28;20056;-77
2023/09/27 08:13:39;;;;;;;27.92;24.60;;;16.60;99.90;;;;;;5040558;28;20382;-76
2023/09/27 08:16:07;;;;;;;30.67;25.98;;;16.70;99.90;;;;;;5039803;28;20071;-77
2023/09/27 08:18:33;;;;;;;28.20;24.67;;;16.80;99.90;;;;;;5044540;28;20083;-76
2023/09/27 08:21:00;;;;;;;30.02;25.17;;;17.00;99.90;;;;;;5047867;28;20523;-77
2023/09/27 08:23:25;;;;;;;28.20;24.63;;;17.10;99.90;;;;;;5046658;28;20552;-77
2023/09/27 08:25:52;;;;;;;29.65;25.48;;;17.20;99.90;;;;;;5047129;28;20094;-76
2023/09/27 08:28:21;;;;;;;29.38;24.30;;;17.30;99.90;;;;;;5045899;28;20463;-77
2023/09/27 08:30:47;;;;;;;29.58;24.45;;;17.30;99.90;;;;;;5049212;28;20048;-76
2023/09/27 08:33:13;;;;;;;28.73;24.55;;;17.40;99.90;;;;;;5032471;28;20094;-77
2023/09/27 08:35:38;;;;;;;31.02;24.23;;;17.50;99.90;;;;;;5048424;28;20049;-77
2023/09/27 08:38:04;;;;;;;28.05;23.83;;;17.60;99.90;;;;;;5049774;28;20040;-77
2023/09/27 08:40:29;;;;;;;31.90;24.63;;;17.70;99.90;;;;;;5044073;28;20048;-77
2023/09/27 08:43:00;;;;;;;27.33;23.83;;;17.80;99.90;;;;;;5040583;28;20048;-77
2023/09/27 08:45:26;;;;;;;28.42;23.08;;;17.90;99.90;;;;;;5036905;28;20053;-76
2023/09/27 08:47:52;;;;;;;28.55;24.45;;;18.00;99.90;;;;;;5030481;28;20041;-76
2023/09/27 08:50:19;;;;;;;30.60;23.85;;;18.00;99.90;;;;;;5025291;28;20052;-77
2023/09/27 08:52:48;;;;;;;29.05;23.67;;;18.00;99.90;;;;;;5043385;28;20086;-77
2023/09/27 08:55:15;;;;;;;28.58;22.42;;;18.10;99.90;;;;;;5044965;28;20121;-76
2023/09/27 08:57:46;;;;;;;27.48;23.58;;;18.20;99.90;;;;;;5037366;28;20063;-77
2023/09/27 09:00:16;;;;;;;27.88;22.92;;;18.30;99.90;;;;;;5040626;28;20045;-77
2023/09/27 09:02:46;;;;;;;30.98;22.73;;;18.40;99.90;;;;;;5044473;28;20091;-77
2023/09/27 09:05:12;;;;;;;24.15;21.27;;;18.40;99.90;;;;;;5037854;28;20053;-77
2023/09/27 09:07:40;;;;;;;26.00;23.20;;;18.50;99.90;;;;;;5044259;28;20076;-77
2023/09/27 09:10:16;;;;;;;29.60;22.67;;;18.50;99.90;;;;;;5042889;28;20091;-76
2023/09/27 09:12:43;;;;;;;24.63;21.88;;;18.60;99.90;;;;;;5032631;28;20899;-77
2023/09/27 09:15:26;;;;;;;26.25;21.00;;;18.80;99.90;;;;;;5044038;28;20033;-77
2023/09/27 09:17:57;;;;;;;23.95;19.77;;;19.00;99.90;;;;;;5022938;28;20619;-77
2023/09/27 09:20:32;;;;;;;25.00;19.13;;;19.00;99.90;;;;;;5034328;28;20508;-76
2023/09/27 09:23:02;;;;;;;24.65;19.40;;;19.10;99.90;;;;;;5032625;28;20496;-77
2023/09/27 09:25:28;;;;;;;21.08;18.52;;;19.10;99.90;;;;;;5048945;28;20129;-76
2023/09/27 09:28:09;;;;;;;28.83;18.95;;;19.10;99.90;;;;;;5049116;28;20037;-77
2023/09/27 09:30:36;;;;;;;23.90;16.92;;;19.10;99.90;;;;;;5049029;28;20072;-77
2023/09/27 09:33:03;;;;;;;22.15;17.83;;;19.10;99.90;;;;;;5049058;28;20068;-77
2023/09/27 09:35:30;;;;;;;24.50;18.35;;;19.20;99.90;;;;;;5032530;28;20040;-77
2023/09/27 09:37:58;;;;;;;21.98;16.17;;;19.10;99.90;;;;;;5048981;28;20045;-77
2023/09/27 09:40:24;;;;;;;20.85;15.75;;;19.40;99.90;;;;;;5052766;28;20063;-76
2023/09/27 09:42:50;;;;;;;18.52;14.90;;;19.50;99.90;;;;;;5053100;28;20041;-77
2023/09/27 09:45:16;;;;;;;18.77;13.48;;;19.50;99.90;;;;;;5052847;28;20055;-77
2023/09/27 09:47:44;;;;;;;19.73;12.82;;;19.60;99.90;;;;;;5052724;28;20119;-76
2023/09/27 09:50:17;;;;;;;21.83;12.70;;;19.70;99.90;;;;;;5052811;28;20044;-77
2023/09/27 09:52:57;;;;;;;17.90;12.80;;;19.70;99.90;;;;;;5052957;28;20488;-78
2023/09/27 09:55:24;;;;;;;19.77;13.85;;;19.70;99.90;;;;;;5036610;28;20037;-78
2023/09/27 09:58:20;;;;;;;18.50;12.93;;;19.70;99.90;;;;;;5052866;28;20124;-77
2023/09/27 10:00:50;;;;;;;21.42;11.98;;;19.70;99.90;;;;;;5014155;28;20071;-77
2023/09/27 10:03:20;;;;;;;17.05;12.43;;;19.80;99.90;;;;;;5053453;28;20048;-78
2023/09/27 10:05:50;;;;;;;20.42;12.93;;;19.90;99.90;;;;;;5055012;28;20041;-78
2023/09/27 10:08:19;;;;;;;21.02;12.52;;;20.00;99.90;;;;;;5052427;28;20040;-77
2023/09/27 10:10:45;;;;;;;13.30;10.32;;;20.10;99.90;;;;;;5053270;28;20045;-78
2023/09/27 10:13:12;;;;;;;14.02;9.40;;;20.20;99.90;;;;;;5050549;28;20044;-78
2023/09/27 10:15:40;;;;;;;15.30;10.15;;;20.30;99.90;;;;;;5044868;28;20127;-78
2023/09/27 10:18:21;;;;;;;14.93;9.90;;;20.40;99.90;;;;;;5033544;28;20129;-77
2023/09/27 10:21:05;;;;;;;13.90;9.82;;;20.40;99.90;;;;;;5068962;28;20468;-78
2023/09/27 10:23:58;;;;;;;13.02;8.90;;;20.50;99.90;;;;;;5035224;28;20099;-78
2023/09/27 10:26:26;;;;;;;11.57;7.00;;;20.50;99.90;;;;;;5043830;28;20111;-78
2023/09/27 10:29:04;;;;;;;13.18;6.88;;;20.50;99.90;;;;;;5036953;28;20041;-77
2023/09/27 10:31:31;;;;;;;11.80;7.28;;;20.50;99.90;;;;;;5036551;28;20047;-78
2023/09/27 10:33:56;;;;;;;13.07;6.97;;;20.40;99.90;;;;;;5052777;28;20116;-78
2023/09/27 10:36:22;;;;;;;11.52;6.53;;;20.40;99.90;;;;;;5051622;28;20129;-78
2023/09/27 10:38:50;;;;;;;9.73;6.10;;;20.40;99.90;;;;;;5041290;28;20101;-79
2023/09/27 10:41:38;;;;;;;10.75;6.32;;;20.30;99.90;;;;;;5051095;28;20079;-78
2023/09/27 10:44:04;;;;;;;10.30;5.68;;;20.40;99.90;;;;;;5052484;28;20060;-77
2023/09/27 10:46:49;;;;;;;9.82;5.60;;;20.40;99.90;;;;;;5053186;28;20052;-78
2023/09/27 10:49:22;;;;;;;10.65;5.43;;;20.50;99.90;;;;;;5053835;28;20175;-78
2023/09/27 10:51:48;;;;;;;9.50;5.68;;;20.50;99.90;;;;;;5050926;28;20116;-76
2023/09/27 10:54:14;;;;;;;10.23;5.10;;;20.60;99.90;;;;;;5043416;28;20120;-77
2023/09/27 10:56:44;;;;;;;8.23;4.65;;;20.50;99.90;;;;;;5051339;28;20192;-79
2023/09/27 10:59:10;;;;;;;11.70;4.10;;;20.50;99.90;;;;;;5035780;28;20116;-79
2023/09/27 11:01:43;;;;;;;8.98;4.30;;;20.50;99.90;;;;;;5051992;28;20068;-78
2023/09/27 11:04:12;;;;;;;9.70;3.53;;;20.50;99.90;;;;;;5046676;28;20663;-79
2023/09/27 11:06:37;;;;;;;8.50;4.75;;;20.50;99.90;;;;;;5053044;28;20052;-77
2023/09/27 11:09:07;;;;;;;18.40;4.50;;;20.50;99.90;;;;;;5048727;28;20045;-77
2023/09/27 11:11:36;;;;;;;9.38;4.10;;;20.40;99.90;;;;;;5044892;28;20617;-78
2023/09/27 11:14:01;;;;;;;10.07;4.10;;;20.50;99.90;;;;;;5028546;28;20037;-78
2023/09/27 11:16:27;;;;;;;10.48;4.00;;;20.50;99.90;;;;;;5043031;28;20496;-78
2023/09/27 11:18:56;;;;;;;8.23;4.70;;;20.60;99.90;;;;;;5029547;28;20121;-78
2023/09/27 11:21:24;;;;;;;12.43;4.82;;;20.60;99.90;;;;;;5048821;28;20116;-78
2023/09/27 11:24:00;;;;;;;8.65;4.85;;;20.60;99.90;;;;;;5045996;28;20094;-78
2023/09/27 11:26:28;;;;;;;7.80;4.97;;;20.60;99.90;;;;;;5045735;28;20567;-78
2023/09/27 11:28:59;;;;;;;11.07;5.25;;;20.70;99.90;;;;;;5026484;28;20041;-78
2023/09/27 11:31:26;;;;;;;7.90;4.75;;;20.70;99.90;;;;;;5030891;28;20048;-77
2023/09/27 11:33:51;;;;;;;9.55;5.82;;;20.70;99.90;;;;;;5046323;28;20033;-77
2023/09/27 11:36:17;;;;;;;11.82;5.40;;;20.70;99.90;;;;;;5041613;28;20037;-78
2023/09/27 11:38:50;;;;;;;8.30;5.38;;;20.80;99.90;;;;;;5020353;28;20040;-78
2023/09/27 11:41:18;;;;;;;9.00;4.80;;;20.70;99.90;;;;;;5051450;28;20056;-75
2023/09/27 11:43:44;;;;;;;7.97;5.15;;;20.80;99.90;;;;;;5044191;28;20171;-78
2023/09/27 11:46:09;;;;;;;7.57;4.63;;;20.80;99.90;;;;;;5050339;28;20076;-78
2023/09/27 11:48:35;;;;;;;7.43;4.95;;;20.80;99.90;;;;;;5051628;28;20072;-78
2023/09/27 11:51:02;;;;;;;9.80;5.13;;;20.90;99.90;;;;;;5049135;28;20040;-78
2023/09/27 11:53:28;;;;;;;7.53;4.78;;;21.00;99.90;;;;;;5034417;28;20526;-78
2023/09/27 11:55:55;;;;;;;12.68;5.60;;;21.10;99.90;;;;;;5049911;28;20043;-78
2023/09/27 11:58:21;;;;;;;9.02;5.75;;;21.20;99.90;;;;;;5049855;28;20033;-78
2023/09/27 12:00:46;;;;;;;9.65;5.40;;;21.20;99.90;;;;;;5051594;28;20048;-78
2023/09/27 12:03:12;;;;;;;8.88;5.05;;;21.30;99.90;;;;;;5051234;28;20503;-78
2023/09/27 12:05:38;;;;;;;7.55;4.80;;;21.30;99.90;;;;;;5050664;28;20045;-78
2023/09/27 12:08:05;;;;;;;10.02;4.82;;;21.50;99.90;;;;;;5050945;28;20408;-78
2023/09/27 12:10:30;;;;;;;8.73;4.70;;;21.80;99.90;;;;;;5053309;28;20096;-79
2023/09/27 12:12:56;;;;;;;9.98;4.90;;;21.90;99.90;;;;;;5050186;28;20116;-78
2023/09/27 12:15:22;;;;;;;8.52;4.65;;;21.90;99.90;;;;;;5045371;28;20479;-78
2023/09/27 12:17:48;;;;;;;9.02;4.90;;;21.90;99.90;;;;;;5030692;28;20116;-77
2023/09/27 12:20:13;;;;;;;6.85;4.55;;;22.00;99.90;;;;;;5034922;28;20041;-78
2023/09/27 12:22:40;;;;;;;6.68;4.13;;;22.00;99.90;;;;;;5052104;28;20037;-78
2023/09/27 12:25:06;;;;;;;7.65;4.55;;;22.20;99.90;;;;;;5049957;28;20041;-78
2023/09/27 12:27:32;;;;;;;7.95;4.70;;;22.40;99.90;;;;;;5049018;28;20037;-79
2023/09/27 12:29:59;;;;;;;8.05;4.53;;;22.40;99.90;;;;;;5048206;28;20108;-79